Time;durP1;ratioP1;P1;durP2;ratioP2;P2;SDS_P1;SDS_P2;PMS_P1;PMS_P2;Temp;Humidity;BMP_temperature;BMP_pressure;BME280_temperature;BME280_humidity;BME280_pressure;Samples;Min_cycle;Max_cycle;Signal;HPM_P1;HPM_P2
2023/01/22 05:02:22;;;;;;;1.10;1.05;;;3.30;99.90;;;;;;5073238;23;20233;-66
2023/01/22 05:04:49;;;;;;;1.27;0.47;;;3.30;99.90;;;;;;4949630;28;20218;-66
2023/01/22 05:07:15;;;;;;;1.45;0.85;;;3.30;99.90;;;;;;4952998;28;20209;-66
2023/01/22 05:09:42;;;;;;;1.52;1.42;;;3.30;99.90;;;;;;4952946;28;20588;-66
2023/01/22 05:12:09;;;;;;;1.48;1.13;;;3.30;99.90;;;;;;4953152;28;20237;-67
2023/01/22 05:14:36;;;;;;;2.60;1.52;;;3.30;99.90;;;;;;4972751;23;20242;-68
2023/01/22 05:17:03;;;;;;;1.10;1.10;;;3.30;99.90;;;;;;4970319;28;20219;-68
2023/01/22 05:19:31;;;;;;;1.73;1.63;;;3.30;99.90;;;;;;4964697;28;20224;-69
2023/01/22 05:21:57;;;;;;;1.75;1.50;;;3.30;99.90;;;;;;4970295;28;20697;-69
2023/01/22 05:24:24;;;;;;;1.85;1.75;;;3.30;99.90;;;;;;4970796;28;20632;-68
2023/01/22 05:26:51;;;;;;;0.85;0.85;;;3.30;99.90;;;;;;4970683;28;20214;-68
2023/01/22 05:29:18;;;;;;;2.45;0.52;;;3.30;99.90;;;;;;4971261;28;20235;-68
2023/01/22 05:31:45;;;;;;;0.70;0.70;;;3.30;99.90;;;;;;4970511;28;20205;-68
2023/01/22 05:34:11;;;;;;;2.63;1.33;;;3.40;99.90;;;;;;4966707;28;20232;-68
2023/01/22 05:36:39;;;;;;;2.67;2.58;;;3.40;99.90;;;;;;4972261;28;20201;-68
2023/01/22 05:39:06;;;;;;;2.08;1.98;;;3.40;99.90;;;;;;4967332;28;20217;-69
2023/01/22 05:41:33;;;;;;;0.80;0.80;;;3.40;99.90;;;;;;4970461;28;20213;-68
2023/01/22 05:44:01;;;;;;;2.53;1.85;;;3.40;99.90;;;;;;4969640;28;20748;-68
2023/01/22 05:46:28;;;;;;;1.85;1.67;;;3.40;99.90;;;;;;4969239;28;20243;-67
2023/01/22 05:48:55;;;;;;;1.00;1.00;;;3.40;99.90;;;;;;4971492;28;20591;-69
2023/01/22 05:51:22;;;;;;;0.45;0.45;;;3.40;99.90;;;;;;4971139;28;20803;-67
2023/01/22 05:53:50;;;;;;;1.48;1.48;;;3.40;99.90;;;;;;4967021;28;20683;-67
2023/01/22 05:56:18;;;;;;;2.53;2.33;;;3.50;99.90;;;;;;4968642;28;20204;-67
2023/01/22 05:58:45;;;;;;;2.95;1.15;;;3.50;99.90;;;;;;4966370;28;20710;-69
2023/01/22 06:01:12;;;;;;;0.52;0.52;;;3.50;99.90;;;;;;4968836;28;20213;-67
2023/01/22 06:03:39;;;;;;;7.20;1.02;;;3.50;99.90;;;;;;4965932;28;20231;-68
2023/01/22 06:06:08;;;;;;;2.58;2.47;;;3.40;99.90;;;;;;4968144;28;20208;-66
2023/01/22 06:08:34;;;;;;;0.80;0.80;;;3.40;99.90;;;;;;4970133;28;20212;-69
2023/01/22 06:11:05;;;;;;;1.42;1.27;;;3.40;99.90;;;;;;4969441;28;20304;-67
2023/01/22 06:13:32;;;;;;;0.82;0.82;;;3.40;99.90;;;;;;4962708;28;20216;-67
2023/01/22 06:15:59;;;;;;;2.78;1.38;;;3.40;99.90;;;;;;4971816;28;20795;-68
2023/01/22 06:18:27;;;;;;;0.55;0.55;;;3.40;99.90;;;;;;4971780;28;20213;-67
2023/01/22 06:20:58;;;;;;;1.05;1.05;;;3.40;99.90;;;;;;4970484;28;20217;-68
2023/01/22 06:23:26;;;;;;;2.13;1.83;;;3.40;99.90;;;;;;4970300;28;20226;-70
2023/01/22 06:25:54;;;;;;;0.90;0.90;;;3.40;99.90;;;;;;4970031;28;20225;-68
2023/01/22 06:28:22;;;;;;;0.90;0.90;;;3.40;99.90;;;;;;4968964;28;20209;-68
2023/01/22 06:30:49;;;;;;;1.05;1.05;;;3.40;99.90;;;;;;4969915;28;20212;-69
2023/01/22 06:33:16;;;;;;;3.35;2.72;;;3.40;99.90;;;;;;4969593;28;20543;-69
2023/01/22 06:35:43;;;;;;;3.15;0.82;;;3.40;99.90;;;;;;4968780;28;20240;-68
2023/01/22 06:38:10;;;;;;;7.05;1.65;;;3.50;99.90;;;;;;4967220;28;20522;-69
2023/01/22 06:40:36;;;;;;;0.85;0.82;;;3.40;99.90;;;;;;4970277;28;20219;-67
2023/01/22 06:43:04;;;;;;;0.35;0.35;;;3.50;99.90;;;;;;4970947;28;20691;-69
2023/01/22 06:45:32;;;;;;;1.13;1.05;;;3.50;99.90;;;;;;4960455;28;20232;-67
2023/01/22 06:47:59;;;;;;;2.67;1.15;;;3.50;99.90;;;;;;4969865;28;20205;-67
2023/01/22 06:50:26;;;;;;;0.20;0.20;;;3.50;99.90;;;;;;4972221;28;20204;-68
2023/01/22 06:52:52;;;;;;;1.77;0.98;;;3.50;99.90;;;;;;4970934;28;20209;-67
2023/01/22 06:55:19;;;;;;;0.55;0.55;;;3.50;99.90;;;;;;4971045;28;20311;-67
2023/01/22 06:57:46;;;;;;;0.90;0.90;;;3.60;99.90;;;;;;4968095;28;20311;-68
2023/01/22 07:00:14;;;;;;;1.60;0.80;;;3.60;99.90;;;;;;4969428;28;20201;-67
2023/01/22 07:02:42;;;;;;;2.05;1.02;;;3.60;99.90;;;;;;4971257;28;20208;-67
2023/01/22 07:05:09;;;;;;;10.32;1.75;;;3.60;99.90;;;;;;4969993;28;20233;-68
2023/01/22 07:07:36;;;;;;;0.85;0.85;;;3.60;99.90;;;;;;4971059;28;20205;-67
2023/01/22 07:10:03;;;;;;;1.52;1.42;;;3.60;99.90;;;;;;4974340;28;20216;-67
2023/01/22 07:12:29;;;;;;;1.67;1.25;;;3.60;99.90;;;;;;4971366;28;20216;-66
2023/01/22 07:14:56;;;;;;;0.70;0.70;;;3.60;99.90;;;;;;4973144;28;20243;-69
2023/01/22 07:17:23;;;;;;;1.77;1.70;;;3.60;99.90;;;;;;4972839;28;20642;-67
2023/01/22 07:19:51;;;;;;;0.20;0.20;;;3.60;99.90;;;;;;4974207;28;20209;-66
2023/01/22 07:22:18;;;;;;;1.30;0.75;;;3.60;99.90;;;;;;4973258;28;20548;-66
2023/01/22 07:24:44;;;;;;;0.57;0.57;;;3.60;99.90;;;;;;4973749;28;20228;-68
2023/01/22 07:27:11;;;;;;;0.32;0.32;;;3.70;99.90;;;;;;4973521;28;20933;-69
2023/01/22 07:29:38;;;;;;;0.40;0.40;;;3.70;99.90;;;;;;4971470;28;20216;-66
2023/01/22 07:32:05;;;;;;;0.63;0.63;;;3.70;99.90;;;;;;4975245;28;20220;-68
2023/01/22 07:34:32;;;;;;;1.60;1.60;;;3.70;99.90;;;;;;4973418;28;20605;-67
2023/01/22 07:37:02;;;;;;;2.20;0.47;;;3.70;99.90;;;;;;4970938;28;20212;-67
2023/01/22 07:39:29;;;;;;;1.30;0.35;;;3.70;99.90;;;;;;4972890;28;20256;-68
2023/01/22 07:41:59;;;;;;;1.05;0.95;;;3.80;99.90;;;;;;4974939;28;20216;-67
2023/01/22 07:44:26;;;;;;;3.50;0.73;;;3.80;99.90;;;;;;4971164;28;20243;-67
2023/01/22 07:46:53;;;;;;;0.28;0.28;;;3.80;99.90;;;;;;4971653;28;20696;-68
2023/01/22 07:49:20;;;;;;;0.52;0.52;;;3.80;99.90;;;;;;4970888;28;20224;-68
2023/01/22 07:51:46;;;;;;;1.48;1.38;;;3.90;99.90;;;;;;4973536;28;20213;-67
2023/01/22 07:54:14;;;;;;;0.50;0.50;;;3.90;99.90;;;;;;4969922;28;20706;-68
2023/01/22 07:56:41;;;;;;;1.83;1.70;;;3.90;99.90;;;;;;4972287;28;20698;-68
2023/01/22 07:59:08;;;;;;;1.20;1.20;;;3.90;99.90;;;;;;4971165;28;20219;-68
2023/01/22 08:01:34;;;;;;;0.47;0.47;;;3.90;99.90;;;;;;4970151;28;20209;-67
2023/01/22 08:04:01;;;;;;;0.75;0.75;;;4.00;99.90;;;;;;4971863;28;20732;-67
2023/01/22 08:06:28;;;;;;;0.47;0.47;;;3.90;99.90;;;;;;4974401;28;20200;-67
2023/01/22 08:08:55;;;;;;;0.40;0.40;;;4.00;99.90;;;;;;4970733;28;20223;-67
2023/01/22 08:11:23;;;;;;;0.60;0.60;;;4.00;99.90;;;;;;4974362;28;20205;-69
2023/01/22 08:13:50;;;;;;;4.88;1.00;;;4.00;99.90;;;;;;4968807;28;20210;-68
2023/01/22 08:16:16;;;;;;;0.40;0.40;;;4.00;99.90;;;;;;4973422;28;20232;-68
2023/01/22 08:18:43;;;;;;;0.32;0.32;;;4.00;99.90;;;;;;4967427;28;20740;-69
2023/01/22 08:21:10;;;;;;;0.98;0.98;;;4.00;99.90;;;;;;4963677;28;20205;-68
2023/01/22 08:23:37;;;;;;;1.58;1.58;;;4.00;99.90;;;;;;4970475;28;20216;-67
2023/01/22 08:26:04;;;;;;;4.78;1.92;;;4.00;99.90;;;;;;4973708;28;20292;-68
2023/01/22 08:28:33;;;;;;;3.83;2.17;;;4.00;99.90;;;;;;4966360;28;20208;-69
2023/01/22 08:31:01;;;;;;;0.47;0.47;;;4.00;99.90;;;;;;4971294;28;20221;-66
2023/01/22 08:33:29;;;;;;;0.55;0.55;;;4.00;99.90;;;;;;4973622;28;20211;-67
2023/01/22 08:35:56;;;;;;;0.38;0.30;;;4.00;99.90;;;;;;4972641;28;20597;-67
2023/01/22 08:38:22;;;;;;;0.85;0.30;;;4.00;99.90;;;;;;4973962;28;20220;-67
2023/01/22 08:40:50;;;;;;;0.68;0.35;;;4.00;99.90;;;;;;4971229;28;20209;-67
2023/01/22 08:43:17;;;;;;;1.67;1.67;;;4.00;99.90;;;;;;4972891;28;20201;-68
2023/01/22 08:45:48;;;;;;;1.40;0.77;;;4.00;99.90;;;;;;4969475;28;20248;-67
2023/01/22 08:48:15;;;;;;;2.72;0.50;;;4.00;99.90;;;;;;4968963;28;20216;-67
2023/01/22 08:50:42;;;;;;;3.40;0.98;;;4.00;99.90;;;;;;4965491;28;20275;-68
2023/01/22 08:53:09;;;;;;;0.28;0.28;;;4.00;99.90;;;;;;4965234;28;20205;-66
2023/01/22 08:55:35;;;;;;;0.90;0.90;;;4.00;99.90;;;;;;4965488;28;20221;-68
2023/01/22 08:58:02;;;;;;;0.40;0.40;;;4.00;99.90;;;;;;4970767;28;20295;-67
2023/01/22 09:00:29;;;;;;;0.20;0.20;;;4.00;99.90;;;;;;4971128;28;20216;-67
2023/01/22 09:03:00;;;;;;;0.95;0.30;;;4.00;99.90;;;;;;4970934;28;20224;-67
2023/01/22 09:05:27;;;;;;;1.45;1.35;;;4.00;99.90;;;;;;4968019;28;20235;-67
2023/01/22 09:07:54;;;;;;;6.25;0.65;;;4.00;99.90;;;;;;4969330;28;20205;-68
2023/01/22 09:10:20;;;;;;;4.15;1.30;;;4.00;99.90;;;;;;4968348;28;20212;-66
2023/01/22 09:12:47;;;;;;;1.05;1.05;;;4.00;99.90;;;;;;4965670;28;20201;-68
2023/01/22 09:15:14;;;;;;;2.50;0.73;;;4.00;99.90;;;;;;4970779;28;20316;-68
2023/01/22 09:17:41;;;;;;;1.05;1.05;;;4.00;99.90;;;;;;4965569;28;20228;-68
2023/01/22 09:20:10;;;;;;;1.52;0.88;;;4.00;99.90;;;;;;4969594;28;20267;-68
2023/01/22 09:22:37;;;;;;;4.78;1.15;;;4.00;99.90;;;;;;4971196;28;20209;-67
2023/01/22 09:25:04;;;;;;;3.75;3.50;;;4.00;99.90;;;;;;4970510;28;20220;-70
2023/01/22 09:27:31;;;;;;;2.95;0.80;;;4.00;99.90;;;;;;4964653;28;20606;-68
2023/01/22 09:29:58;;;;;;;2.05;0.95;;;4.00;99.90;;;;;;4967107;28;20201;-69
2023/01/22 09:32:25;;;;;;;1.15;1.15;;;4.00;99.90;;;;;;4967083;28;20227;-69
2023/01/22 09:34:51;;;;;;;0.75;0.75;;;4.00;99.90;;;;;;4969952;28;20224;-66
2023/01/22 09:37:20;;;;;;;1.48;1.48;;;4.00;99.90;;;;;;4968923;28;20213;-68
2023/01/22 09:39:48;;;;;;;2.05;1.00;;;4.00;99.90;;;;;;4971102;28;20216;-68
2023/01/22 09:42:20;;;;;;;1.02;1.02;;;4.00;99.90;;;;;;4970456;28;20212;-67
2023/01/22 09:44:52;;;;;;;1.10;1.02;;;4.10;99.90;;;;;;4960919;28;20224;-69
2023/01/22 09:47:26;;;;;;;1.38;1.33;;;4.10;99.90;;;;;;4969179;28;20205;-67
2023/01/22 09:49:57;;;;;;;1.80;1.70;;;4.10;99.90;;;;;;4967050;28;20200;-67
2023/01/22 09:52:29;;;;;;;1.13;1.13;;;4.10;99.90;;;;;;4970691;28;20239;-67
2023/01/22 09:54:56;;;;;;;2.35;1.40;;;4.20;99.90;;;;;;4963155;28;20535;-68
2023/01/22 09:57:23;;;;;;;0.95;0.95;;;4.20;99.90;;;;;;4965025;28;20212;-67
2023/01/22 09:59:52;;;;;;;0.40;0.40;;;4.20;99.90;;;;;;4968394;28;20529;-67
2023/01/22 10:02:24;;;;;;;3.60;2.92;;;4.30;99.90;;;;;;4973187;28;20198;-68
2023/01/22 10:04:53;;;;;;;5.68;1.40;;;4.20;99.90;;;;;;4970282;28;20720;-68
2023/01/22 10:07:25;;;;;;;0.55;0.55;;;4.30;99.90;;;;;;4968054;28;20213;-67
2023/01/22 10:09:56;;;;;;;0.47;0.47;;;4.30;99.90;;;;;;4970616;28;20212;-67
2023/01/22 10:12:23;;;;;;;0.52;0.52;;;4.40;99.90;;;;;;4971302;28;20205;-67
2023/01/22 10:14:52;;;;;;;0.85;0.85;;;4.40;99.90;;;;;;4972006;28;20236;-66
2023/01/22 10:17:23;;;;;;;1.00;1.00;;;4.40;99.90;;;;;;4972178;28;20210;-67
2023/01/22 10:19:55;;;;;;;4.35;1.73;;;4.40;99.90;;;;;;4971761;28;20212;-67
2023/01/22 10:22:24;;;;;;;0.60;0.60;;;4.40;99.90;;;;;;4969194;28;20209;-67
2023/01/22 10:24:53;;;;;;;3.80;1.27;;;4.40;99.90;;;;;;4967874;28;20649;-68
2023/01/22 10:27:25;;;;;;;0.50;0.50;;;4.40;99.90;;;;;;4960960;28;20216;-67
2023/01/22 10:30:01;;;;;;;0.30;0.30;;;4.40;99.90;;;;;;4965153;28;20550;-67
2023/01/22 10:32:29;;;;;;;4.50;1.98;;;4.50;99.90;;;;;;4970972;28;20212;-67
2023/01/22 10:35:02;;;;;;;1.30;1.20;;;4.50;99.90;;;;;;4967796;28;20240;-66
2023/01/22 10:37:29;;;;;;;0.45;0.38;;;4.50;99.90;;;;;;4969330;28;20315;-68
2023/01/22 10:39:59;;;;;;;0.73;0.73;;;4.50;99.90;;;;;;4969814;28;20216;-67
2023/01/22 10:42:28;;;;;;;2.30;1.15;;;4.50;99.90;;;;;;4975394;28;20686;-69
2023/01/22 10:44:56;;;;;;;1.40;1.30;;;4.50;99.90;;;;;;4967002;28;20592;-69
2023/01/22 10:47:26;;;;;;;1.70;1.60;;;4.50;99.90;;;;;;4975470;28;20201;-67
2023/01/22 10:50:02;;;;;;;3.22;1.15;;;4.50;99.90;;;;;;4976577;28;20205;-69
2023/01/22 10:52:35;;;;;;;2.60;2.40;;;4.50;99.90;;;;;;4972426;28;20543;-67
2023/01/22 10:55:04;;;;;;;3.33;1.90;;;4.50;99.90;;;;;;4975414;28;20235;-69
2023/01/22 10:57:34;;;;;;;14.80;1.67;;;4.50;99.90;;;;;;4964210;28;20210;-67
2023/01/22 11:00:07;;;;;;;0.47;0.47;;;4.50;99.90;;;;;;4971654;28;20200;-66
2023/01/22 11:02:35;;;;;;;7.53;1.30;;;4.50;99.90;;;;;;4974433;28;20217;-67
2023/01/22 11:05:16;;;;;;;3.88;3.15;;;4.60;99.90;;;;;;4973963;28;20235;-69
2023/01/22 11:07:45;;;;;;;0.77;0.77;;;4.60;99.90;;;;;;4968492;28;20209;-66
2023/01/22 11:10:19;;;;;;;0.80;0.80;;;4.60;99.90;;;;;;4966489;28;20236;-67
2023/01/22 11:12:51;;;;;;;2.55;0.80;;;4.60;99.90;;;;;;4969305;28;20310;-67
2023/01/22 11:15:22;;;;;;;16.80;1.45;;;4.70;99.90;;;;;;4966962;28;20232;-67
2023/01/22 11:17:52;;;;;;;1.25;1.15;;;4.70;99.90;;;;;;4965610;28;20236;-66
2023/01/22 11:20:25;;;;;;;1.02;0.60;;;4.70;99.90;;;;;;4985614;23;20209;-67
2023/01/22 11:23:03;;;;;;;0.60;0.60;;;4.80;99.90;;;;;;4897217;29;20304;-67
2023/01/22 11:25:40;;;;;;;1.33;1.27;;;4.80;99.90;;;;;;4896807;29;20220;-67
2023/01/22 11:28:21;;;;;;;0.40;0.40;;;4.80;99.90;;;;;;4905150;29;20229;-67
2023/01/22 11:31:06;;;;;;;9.82;1.40;;;4.80;99.90;;;;;;4903866;29;20321;-67
2023/01/22 11:33:49;;;;;;;1.05;1.05;;;4.90;99.90;;;;;;4893455;29;20219;-67
2023/01/22 11:36:22;;;;;;;1.40;1.40;;;5.00;99.90;;;;;;4896514;29;20228;-67
2023/01/22 11:38:54;;;;;;;2.20;1.50;;;5.00;99.90;;;;;;4903159;29;20637;-67
2023/01/22 11:41:39;;;;;;;0.75;0.75;;;5.10;99.90;;;;;;4898208;29;20235;-67
2023/01/22 11:44:25;;;;;;;0.65;0.50;;;5.10;99.90;;;;;;4896887;29;20208;-66
2023/01/22 11:47:11;;;;;;;0.40;0.40;;;5.20;99.90;;;;;;4904433;29;20205;-67
2023/01/22 11:49:51;;;;;;;0.75;0.75;;;5.20;99.90;;;;;;4878958;29;20217;-67
2023/01/22 11:52:29;;;;;;;2.38;0.52;;;5.20;99.90;;;;;;4901579;29;20254;-67
2023/01/22 11:55:22;;;;;;;1.85;1.75;;;5.30;99.90;;;;;;4897202;29;20675;-67
2023/01/22 11:58:00;;;;;;;2.58;1.48;;;5.20;99.90;;;;;;4897510;29;20204;-67
2023/01/22 12:00:43;;;;;;;0.65;0.65;;;5.30;99.90;;;;;;4895166;29;20208;-67
2023/01/22 12:03:42;;;;;;;1.35;1.25;;;5.30;99.90;;;;;;4896838;29;20296;-67
2023/01/22 12:06:20;;;;;;;0.52;0.52;;;5.30;99.90;;;;;;4894920;29;20210;-67
2023/01/22 12:08:58;;;;;;;1.02;1.02;;;5.30;99.90;;;;;;4901485;29;20208;-67
2023/01/22 12:11:52;;;;;;;6.88;0.85;;;5.30;99.90;;;;;;4903734;29;20312;-67
2023/01/22 12:14:41;;;;;;;0.47;0.47;;;5.30;99.90;;;;;;4903981;29;20211;-67
2023/01/22 12:17:26;;;;;;;0.88;0.88;;;5.30;99.90;;;;;;4895701;29;20311;-67
2023/01/22 12:20:14;;;;;;;0.43;0.43;;;5.30;99.90;;;;;;4896932;29;20203;-67
2023/01/22 12:22:47;;;;;;;0.30;0.30;;;5.20;99.90;;;;;;4900912;29;20318;-67
2023/01/22 12:25:21;;;;;;;0.60;0.60;;;5.20;99.90;;;;;;4907801;29;20291;-67
2023/01/22 12:27:51;;;;;;;0.80;0.80;;;5.20;99.90;;;;;;4911920;29;20206;-67
2023/01/22 12:30:24;;;;;;;0.73;0.73;;;5.10;99.90;;;;;;4915128;29;20664;-67
2023/01/22 12:32:54;;;;;;;0.60;0.60;;;5.20;99.90;;;;;;4912723;29;20208;-67
2023/01/22 12:35:24;;;;;;;1.08;1.00;;;5.20;99.90;;;;;;4907638;29;20212;-67
2023/01/22 12:37:59;;;;;;;1.40;1.05;;;5.20;99.90;;;;;;4906472;29;20233;-67
2023/01/22 12:40:54;;;;;;;0.40;0.40;;;5.20;99.90;;;;;;4896509;29;20211;-67
2023/01/22 12:43:30;;;;;;;0.20;0.20;;;5.20;99.90;;;;;;4901628;29;20260;-68
2023/01/22 12:46:05;;;;;;;1.73;1.73;;;5.20;99.90;;;;;;4902477;29;20212;-67
2023/01/22 12:48:40;;;;;;;0.35;0.35;;;5.20;99.90;;;;;;4897229;29;20263;-67
2023/01/22 12:51:25;;;;;;;0.65;0.65;;;5.20;99.90;;;;;;4898359;29;20233;-68
2023/01/22 12:53:52;;;;;;;0.57;0.40;;;5.20;99.90;;;;;;4904736;29;20224;-67
2023/01/22 12:56:29;;;;;;;2.85;1.05;;;5.10;99.90;;;;;;4916045;29;20712;-67
2023/01/22 12:58:58;;;;;;;3.35;0.60;;;5.10;99.90;;;;;;4898214;29;20211;-68
2023/01/22 13:01:32;;;;;;;0.82;0.60;;;5.10;99.90;;;;;;4896760;29;20243;-69
2023/01/22 13:04:02;;;;;;;2.25;2.05;;;5.10;99.90;;;;;;4902268;29;20298;-68
2023/01/22 13:06:34;;;;;;;0.93;0.90;;;5.10;99.90;;;;;;4904433;29;20654;-68
2023/01/22 13:09:01;;;;;;;0.63;0.60;;;5.10;99.90;;;;;;4894566;29;20216;-67
2023/01/22 13:11:31;;;;;;;0.93;0.93;;;5.10;99.90;;;;;;4911977;29;20230;-67
2023/01/22 13:14:08;;;;;;;0.88;0.88;;;5.10;99.90;;;;;;4892678;29;20213;-67
2023/01/22 13:16:37;;;;;;;0.75;0.75;;;5.00;99.90;;;;;;4900564;29;20258;-68
2023/01/22 13:19:19;;;;;;;1.25;1.25;;;5.00;99.90;;;;;;4897568;29;20234;-68
2023/01/22 13:21:47;;;;;;;1.05;1.05;;;5.00;99.90;;;;;;4903755;29;20239;-68
2023/01/22 13:24:16;;;;;;;3.85;2.80;;;4.90;99.90;;;;;;4902427;29;20301;-68
2023/01/22 13:26:52;;;;;;;1.60;1.60;;;5.00;99.90;;;;;;4903375;29;20219;-67
2023/01/22 13:29:22;;;;;;;1.20;1.00;;;4.90;99.90;;;;;;4891725;29;20284;-68
2023/01/22 13:31:55;;;;;;;1.90;1.23;;;4.90;99.90;;;;;;4901604;29;20299;-68
2023/01/22 13:34:22;;;;;;;2.90;0.40;;;4.90;99.90;;;;;;4896603;29;20220;-67
2023/01/22 13:36:50;;;;;;;0.75;0.75;;;4.90;99.90;;;;;;4894385;29;20231;-67
2023/01/22 13:39:19;;;;;;;3.80;1.65;;;4.90;99.90;;;;;;4896068;29;20211;-67
2023/01/22 13:41:49;;;;;;;0.60;0.60;;;4.90;99.90;;;;;;4907079;29;20649;-67
2023/01/22 13:44:18;;;;;;;11.45;1.25;;;4.90;99.90;;;;;;4902282;29;20201;-67
2023/01/22 13:46:45;;;;;;;1.10;1.10;;;4.90;99.90;;;;;;4912947;29;20214;-67
2023/01/22 13:49:19;;;;;;;1.08;1.08;;;4.90;99.90;;;;;;4895442;29;20208;-67
2023/01/22 13:51:46;;;;;;;1.13;1.13;;;4.90;99.90;;;;;;4895445;29;20228;-67
2023/01/22 13:54:21;;;;;;;1.15;1.15;;;4.80;99.90;;;;;;4902036;29;20220;-67
2023/01/22 13:56:47;;;;;;;0.40;0.40;;;4.90;99.90;;;;;;4907241;29;20570;-67
2023/01/22 13:59:20;;;;;;;3.75;1.35;;;4.90;99.90;;;;;;4894772;29;20566;-67
2023/01/22 14:01:47;;;;;;;8.23;1.40;;;4.80;99.90;;;;;;4895339;29;20236;-67
2023/01/22 14:04:27;;;;;;;1.10;1.10;;;4.80;99.90;;;;;;4901789;29;20219;-67
2023/01/22 14:06:55;;;;;;;0.63;0.63;;;4.80;99.90;;;;;;4906998;29;20366;-64
2023/01/22 14:09:32;;;;;;;2.17;1.20;;;4.80;99.90;;;;;;4897003;29;20219;-63
2023/01/22 14:12:00;;;;;;;2.35;1.30;;;4.80;99.90;;;;;;4906471;29;20611;-64
2023/01/22 14:14:37;;;;;;;1.08;1.08;;;4.80;99.90;;;;;;4905220;29;20672;-64
2023/01/22 14:17:05;;;;;;;0.73;0.30;;;4.80;99.90;;;;;;4909007;29;20239;-64
2023/01/22 14:19:33;;;;;;;1.73;1.63;;;4.90;99.90;;;;;;4893721;29;20241;-64
2023/01/22 14:21:59;;;;;;;2.00;1.90;;;4.90;99.90;;;;;;4909766;29;20250;-64
2023/01/22 14:24:26;;;;;;;3.00;1.52;;;4.90;99.90;;;;;;4901189;29;20215;-64
2023/01/22 14:26:53;;;;;;;1.08;1.08;;;4.80;99.90;;;;;;4894702;29;20211;-64
2023/01/22 14:29:19;;;;;;;1.30;0.82;;;4.90;99.90;;;;;;4895694;29;20208;-64
2023/01/22 14:31:46;;;;;;;0.70;0.70;;;4.80;99.90;;;;;;4903458;29;20309;-64
2023/01/22 14:34:13;;;;;;;3.55;1.65;;;4.80;99.90;;;;;;4896681;29;20219;-64
2023/01/22 14:36:43;;;;;;;10.95;1.00;;;4.80;99.90;;;;;;4901652;29;20605;-67
2023/01/22 14:39:10;;;;;;;0.52;0.52;;;4.80;99.90;;;;;;4896575;29;20235;-67
2023/01/22 14:41:37;;;;;;;1.73;1.73;;;4.80;99.90;;;;;;4898447;29;20234;-67
2023/01/22 14:44:04;;;;;;;0.75;0.75;;;4.80;99.90;;;;;;4905312;29;20667;-67
2023/01/22 14:46:30;;;;;;;11.20;1.70;;;4.80;99.90;;;;;;4904531;29;20218;-67
2023/01/22 14:49:00;;;;;;;0.80;0.80;;;4.80;99.90;;;;;;4902652;29;20219;-68
2023/01/22 14:51:27;;;;;;;1.05;0.93;;;4.70;99.90;;;;;;4895342;29;20295;-67
2023/01/22 14:53:56;;;;;;;0.52;0.52;;;4.80;99.90;;;;;;4900022;29;20203;-67
2023/01/22 14:56:23;;;;;;;1.33;1.25;;;4.80;99.90;;;;;;4901985;29;20207;-67
2023/01/22 14:58:49;;;;;;;1.33;0.95;;;4.70;99.90;;;;;;4896484;29;20732;-67
2023/01/22 15:01:18;;;;;;;1.92;1.83;;;4.70;99.90;;;;;;4894781;29;20290;-67
2023/01/22 15:03:45;;;;;;;0.90;0.90;;;4.70;99.90;;;;;;4898708;29;20207;-67
2023/01/22 15:06:11;;;;;;;2.30;2.25;;;4.70;99.90;;;;;;4904056;29;20215;-67
2023/01/22 15:08:38;;;;;;;1.75;1.65;;;4.70;99.90;;;;;;4897762;29;20658;-67
2023/01/22 15:11:06;;;;;;;0.38;0.38;;;4.70;99.90;;;;;;4896486;29;20245;-67
2023/01/22 15:13:33;;;;;;;0.73;0.73;;;4.70;99.90;;;;;;4904088;29;20581;-67
2023/01/22 15:16:03;;;;;;;1.35;1.35;;;4.70;99.90;;;;;;4904406;29;20207;-67
2023/01/22 15:18:30;;;;;;;1.35;1.08;;;4.70;99.90;;;;;;4901637;29;20231;-67
2023/01/22 15:20:57;;;;;;;0.85;0.47;;;4.70;99.90;;;;;;4897857;29;20249;-67
2023/01/22 15:23:23;;;;;;;0.60;0.60;;;4.60;99.90;;;;;;4902491;29;20681;-67
2023/01/22 15:25:57;;;;;;;0.73;0.73;;;4.70;99.90;;;;;;4899407;29;20214;-67
2023/01/22 15:28:25;;;;;;;0.60;0.60;;;4.70;99.90;;;;;;4900908;29;20223;-67
2023/01/22 15:30:55;;;;;;;0.75;0.75;;;4.70;99.90;;;;;;4899694;29;20237;-67
2023/01/22 15:33:22;;;;;;;1.05;1.05;;;4.70;99.90;;;;;;4912021;29;20204;-67
2023/01/22 15:35:49;;;;;;;2.95;0.95;;;4.70;99.90;;;;;;4915569;29;20221;-67
2023/01/22 15:38:15;;;;;;;1.80;1.67;;;4.70;99.90;;;;;;4898382;29;20394;-67
2023/01/22 15:40:42;;;;;;;1.65;0.77;;;4.70;99.90;;;;;;4910127;29;20677;-67
2023/01/22 15:43:09;;;;;;;1.75;1.65;;;4.70;99.90;;;;;;4896999;29;20216;-67
2023/01/22 15:45:37;;;;;;;3.50;2.08;;;4.70;99.90;;;;;;4908031;29;20219;-67
2023/01/22 15:48:04;;;;;;;0.90;0.90;;;4.60;99.90;;;;;;4904472;29;20754;-67
2023/01/22 15:50:30;;;;;;;2.17;2.08;;;4.60;99.90;;;;;;4897395;29;20596;-67
2023/01/22 15:52:57;;;;;;;1.70;1.05;;;4.60;99.90;;;;;;4896509;29;20217;-67
2023/01/22 15:55:26;;;;;;;0.70;0.70;;;4.60;99.90;;;;;;4907384;29;20298;-67
2023/01/22 15:57:53;;;;;;;10.52;2.25;;;4.50;99.90;;;;;;4912846;29;20240;-67
2023/01/22 16:00:21;;;;;;;0.77;0.70;;;4.50;99.90;;;;;;4914163;29;20226;-66
2023/01/22 16:02:49;;;;;;;1.67;1.67;;;4.50;99.90;;;;;;4915012;29;20211;-67
2023/01/22 16:05:15;;;;;;;1.40;1.30;;;4.50;99.90;;;;;;4906501;29;20222;-67
2023/01/22 16:07:42;;;;;;;3.35;1.80;;;4.50;99.90;;;;;;4902126;29;20294;-67
2023/01/22 16:10:10;;;;;;;2.10;1.98;;;4.50;99.90;;;;;;4895059;29;20207;-67
2023/01/22 16:12:37;;;;;;;1.85;1.85;;;4.50;99.90;;;;;;4896729;29;20672;-67
2023/01/22 16:15:05;;;;;;;1.48;1.33;;;4.50;99.90;;;;;;4902593;29;20234;-67
2023/01/22 16:17:32;;;;;;;2.38;1.25;;;4.40;99.90;;;;;;4902511;29;20705;-67
2023/01/22 16:20:00;;;;;;;2.03;1.83;;;4.40;99.90;;;;;;4910347;29;20226;-67
2023/01/22 16:22:26;;;;;;;1.95;1.35;;;4.40;99.90;;;;;;4902678;29;20243;-67
2023/01/22 16:24:53;;;;;;;1.55;1.55;;;4.40;99.90;;;;;;4893905;29;20580;-67
2023/01/22 16:27:19;;;;;;;0.82;0.82;;;4.40;99.90;;;;;;4907995;29;20690;-68
2023/01/22 16:29:47;;;;;;;1.65;1.55;;;4.40;99.90;;;;;;4898440;29;20211;-67
2023/01/22 16:32:13;;;;;;;0.88;0.88;;;4.40;99.90;;;;;;4899081;29;20236;-67
2023/01/22 16:34:40;;;;;;;1.27;1.27;;;4.40;99.90;;;;;;4896245;29;20227;-67
2023/01/22 16:37:08;;;;;;;3.88;2.95;;;4.40;99.90;;;;;;4898783;29;20207;-67
2023/01/22 16:39:35;;;;;;;2.53;2.53;;;4.40;99.90;;;;;;4896061;29;20208;-67
2023/01/22 16:42:02;;;;;;;5.40;5.03;;;4.40;99.90;;;;;;4899489;29;20301;-67
2023/01/22 16:44:29;;;;;;;2.22;2.10;;;4.40;99.90;;;;;;4897026;29;20219;-67
2023/01/22 16:46:58;;;;;;;3.92;3.53;;;4.40;99.90;;;;;;4902833;29;20202;-67
2023/01/22 16:49:27;;;;;;;3.30;3.00;;;4.40;99.90;;;;;;4902363;29;20633;-67
2023/01/22 16:51:56;;;;;;;1.52;1.50;;;4.30;99.90;;;;;;4907278;29;20230;-67
2023/01/22 16:54:28;;;;;;;2.00;1.80;;;4.40;99.90;;;;;;4902414;29;20280;-67
2023/01/22 16:56:55;;;;;;;1.50;1.40;;;4.40;99.90;;;;;;4897254;29;20215;-67
2023/01/22 16:59:22;;;;;;;0.90;0.90;;;4.30;99.90;;;;;;4894528;29;20260;-67
2023/01/22 17:01:50;;;;;;;3.70;2.53;;;4.40;99.90;;;;;;4887109;29;20315;-67
2023/01/22 17:04:17;;;;;;;2.30;2.05;;;4.30;99.90;;;;;;4887039;29;20208;-67
2023/01/22 17:06:45;;;;;;;1.60;1.55;;;4.40;99.90;;;;;;4889157;29;20211;-67
2023/01/22 17:09:15;;;;;;;3.00;1.80;;;4.40;99.90;;;;;;4888594;29;20215;-67
2023/01/22 17:11:45;;;;;;;1.77;1.67;;;4.30;99.90;;;;;;4887927;29;20239;-68
2023/01/22 17:14:12;;;;;;;1.27;1.27;;;4.30;99.90;;;;;;4886405;29;20230;-68
2023/01/22 17:16:39;;;;;;;2.00;1.67;;;4.30;99.90;;;;;;4888741;29;20734;-67
2023/01/22 17:19:06;;;;;;;1.33;1.33;;;4.30;99.90;;;;;;4891639;29;20262;-67
2023/01/22 17:21:32;;;;;;;2.92;1.40;;;4.30;99.90;;;;;;4903705;29;20242;-67
2023/01/22 17:23:59;;;;;;;2.38;1.30;;;4.30;99.90;;;;;;4890358;29;20208;-67
2023/01/22 17:26:26;;;;;;;12.07;1.85;;;4.30;99.90;;;;;;4940627;23;20236;-71
2023/01/22 17:28:55;;;;;;;1.15;1.15;;;4.30;99.90;;;;;;4953247;28;20711;-68
2023/01/22 17:31:23;;;;;;;0.65;0.65;;;4.30;99.90;;;;;;4946860;28;20210;-70
2023/01/22 17:33:54;;;;;;;0.80;0.80;;;4.30;99.90;;;;;;4953208;28;20681;-69
2023/01/22 17:36:22;;;;;;;1.15;1.15;;;4.30;99.90;;;;;;4947235;28;20226;-68
2023/01/22 17:38:50;;;;;;;4.40;2.13;;;4.30;99.90;;;;;;4950235;29;20253;-67
2023/01/22 17:41:20;;;;;;;7.63;1.20;;;4.40;99.90;;;;;;4945993;29;20209;-67
2023/01/22 17:43:51;;;;;;;1.00;1.00;;;4.40;99.90;;;;;;4948013;28;20285;-68
2023/01/22 17:46:22;;;;;;;1.40;1.23;;;4.30;99.90;;;;;;4942347;29;20229;-70
2023/01/22 17:48:51;;;;;;;1.55;1.55;;;4.40;99.90;;;;;;4953847;29;20205;-68
2023/01/22 17:51:21;;;;;;;7.45;1.98;;;4.40;99.90;;;;;;4948258;28;20205;-68
2023/01/22 17:53:50;;;;;;;1.42;1.35;;;4.30;99.90;;;;;;4951161;28;20234;-69
2023/01/22 17:56:19;;;;;;;2.20;2.13;;;4.40;99.90;;;;;;4948668;28;20225;-67
2023/01/22 17:58:49;;;;;;;1.85;1.75;;;4.40;99.90;;;;;;4950597;29;20225;-68
2023/01/22 18:01:18;;;;;;;1.67;1.58;;;4.40;99.90;;;;;;4949259;28;20241;-68
2023/01/22 18:03:48;;;;;;;1.05;1.05;;;4.40;99.90;;;;;;4955448;29;20222;-71
2023/01/22 18:06:15;;;;;;;5.63;2.20;;;4.40;99.90;;;;;;4958649;28;20233;-68
2023/01/22 18:08:43;;;;;;;7.75;1.15;;;4.40;99.90;;;;;;4961020;28;20221;-68
2023/01/22 18:11:14;;;;;;;3.97;2.33;;;4.40;99.90;;;;;;4955231;28;20308;-68